sensor_id;sensor_type;location;lat;lon;timestamp;temperature;humidity
563;DHT22;266;49.514;8.294;2024-01-11T00:01:34;-4.00;99.90
563;DHT22;266;49.514;8.294;2024-01-11T00:04:03;-4.00;99.90
563;DHT22;266;49.514;8.294;2024-01-11T00:06:31;-4.00;99.90
563;DHT22;266;49.514;8.294;2024-01-11T00:08:59;-4.00;99.90
563;DHT22;266;49.514;8.294;2024-01-11T00:11:28;-3.90;99.90
563;DHT22;266;49.514;8.294;2024-01-11T00:13:58;-4.00;99.90
563;DHT22;266;49.514;8.294;2024-01-11T00:16:26;-3.90;99.90
563;DHT22;266;49.514;8.294;2024-01-11T00:18:54;-3.90;99.90
563;DHT22;266;49.514;8.294;2024-01-11T00:21:22;-4.00;99.90
563;DHT22;266;49.514;8.294;2024-01-11T00:23:50;-3.90;99.90
563;DHT22;266;49.514;8.294;2024-01-11T00:26:18;-3.90;99.90
563;DHT22;266;49.514;8.294;2024-01-11T00:28:47;-3.90;99.90
563;DHT22;266;49.514;8.294;2024-01-11T00:31:16;-4.00;99.90
563;DHT22;266;49.514;8.294;2024-01-11T00:33:43;-4.00;99.90
563;DHT22;266;49.514;8.294;2024-01-11T00:36:17;-3.90;99.90
563;DHT22;266;49.514;8.294;2024-01-11T00:38:45;-4.00;99.90
563;DHT22;266;49.514;8.294;2024-01-11T00:41:13;-3.90;99.90
563;DHT22;266;49.514;8.294;2024-01-11T00:43:41;-3.90;99.90
563;DHT22;266;49.514;8.294;2024-01-11T00:46:10;-3.90;99.90
563;DHT22;266;49.514;8.294;2024-01-11T00:48:38;-3.90;99.90
563;DHT22;266;49.514;8.294;2024-01-11T00:51:06;-3.90;99.90
563;DHT22;266;49.514;8.294;2024-01-11T00:53:34;-3.90;99.90
563;DHT22;266;49.514;8.294;2024-01-11T00:56:03;-3.90;99.90
563;DHT22;266;49.514;8.294;2024-01-11T00:58:31;-3.90;99.90
563;DHT22;266;49.514;8.294;2024-01-11T01:00:59;-3.90;99.90
563;DHT22;266;49.514;8.294;2024-01-11T01:03:28;-3.90;99.90
563;DHT22;266;49.514;8.294;2024-01-11T01:05:57;-3.90;99.90
563;DHT22;266;49.514;8.294;2024-01-11T01:08:25;-3.90;99.90
563;DHT22;266;49.514;8.294;2024-01-11T01:10:53;-3.90;99.90
563;DHT22;266;49.514;8.294;2024-01-11T01:13:21;-3.90;99.90
563;DHT22;266;49.514;8.294;2024-01-11T01:15:49;-3.90;99.90
563;DHT22;266;49.514;8.294;2024-01-11T01:18:17;-3.90;99.90
563;DHT22;266;49.514;8.294;2024-01-11T01:20:47;-3.90;99.90
563;DHT22;266;49.514;8.294;2024-01-11T01:23:15;-3.90;99.90
563;DHT22;266;49.514;8.294;2024-01-11T01:25:43;-3.90;99.90
563;DHT22;266;49.514;8.294;2024-01-11T01:28:11;-3.90;99.90
563;DHT22;266;49.514;8.294;2024-01-11T01:30:39;-3.90;99.90
563;DHT22;266;49.514;8.294;2024-01-11T01:33:07;-3.90;99.90
563;DHT22;266;49.514;8.294;2024-01-11T01:35:35;-4.00;99.90
563;DHT22;266;49.514;8.294;2024-01-11T01:38:05;-3.90;99.90
563;DHT22;266;49.514;8.294;2024-01-11T01:40:33;-3.90;99.90
563;DHT22;266;49.514;8.294;2024-01-11T01:43:00;-4.00;99.90
563;DHT22;266;49.514;8.294;2024-01-11T01:45:28;-3.90;99.90
563;DHT22;266;49.514;8.294;2024-01-11T01:47:56;-3.90;99.90
563;DHT22;266;49.514;8.294;2024-01-11T01:50:25;-4.00;99.90
563;DHT22;266;49.514;8.294;2024-01-11T01:52:55;-4.00;99.90
563;DHT22;266;49.514;8.294;2024-01-11T01:55:25;-4.00;99.90
563;DHT22;266;49.514;8.294;2024-01-11T01:57:54;-4.00;99.90
563;DHT22;266;49.514;8.294;2024-01-11T02:00:24;-4.00;99.90
563;DHT22;266;49.514;8.294;2024-01-11T02:02:55;-4.00;99.90
563;DHT22;266;49.514;8.294;2024-01-11T02:05:24;-4.00;99.90
563;DHT22;266;49.514;8.294;2024-01-11T02:07:52;-4.00;99.90
563;DHT22;266;49.514;8.294;2024-01-11T02:10:20;-4.00;99.90
563;DHT22;266;49.514;8.294;2024-01-11T02:12:51;-4.00;99.90
563;DHT22;266;49.514;8.294;2024-01-11T02:15:19;-4.00;99.90
563;DHT22;266;49.514;8.294;2024-01-11T02:17:47;-4.00;99.90
563;DHT22;266;49.514;8.294;2024-01-11T02:20:15;-4.10;99.90
563;DHT22;266;49.514;8.294;2024-01-11T02:22:46;-4.00;99.90
563;DHT22;266;49.514;8.294;2024-01-11T02:25:16;-4.00;99.90
563;DHT22;266;49.514;8.294;2024-01-11T02:27:45;-4.00;99.90
563;DHT22;266;49.514;8.294;2024-01-11T02:30:14;-4.10;99.90
563;DHT22;266;49.514;8.294;2024-01-11T02:32:43;-4.10;99.90
563;DHT22;266;49.514;8.294;2024-01-11T02:35:13;-4.10;99.90
563;DHT22;266;49.514;8.294;2024-01-11T02:37:42;-4.20;99.90
563;DHT22;266;49.514;8.294;2024-01-11T02:40:13;-4.20;99.90
563;DHT22;266;49.514;8.294;2024-01-11T02:42:43;-4.20;99.90
563;DHT22;266;49.514;8.294;2024-01-11T02:45:11;-4.20;99.90
563;DHT22;266;49.514;8.294;2024-01-11T02:47:40;-4.20;99.90
563;DHT22;266;49.514;8.294;2024-01-11T02:50:09;-4.20;99.90
563;DHT22;266;49.514;8.294;2024-01-11T02:52:38;-4.20;99.90
563;DHT22;266;49.514;8.294;2024-01-11T02:55:09;-4.10;99.90
563;DHT22;266;49.514;8.294;2024-01-11T02:57:37;-4.20;99.90
563;DHT22;266;49.514;8.294;2024-01-11T03:00:07;-4.20;99.90
563;DHT22;266;49.514;8.294;2024-01-11T03:02:37;-4.20;99.90
563;DHT22;266;49.514;8.294;2024-01-11T03:05:06;-4.20;99.90
563;DHT22;266;49.514;8.294;2024-01-11T03:07:34;-4.20;99.90
563;DHT22;266;49.514;8.294;2024-01-11T03:10:02;-4.20;99.90
563;DHT22;266;49.514;8.294;2024-01-11T03:12:29;-4.20;99.90
563;DHT22;266;49.514;8.294;2024-01-11T03:14:57;-4.20;99.90
563;DHT22;266;49.514;8.294;2024-01-11T03:17:27;-4.20;99.90
563;DHT22;266;49.514;8.294;2024-01-11T03:19:55;-4.20;99.90
563;DHT22;266;49.514;8.294;2024-01-11T03:22:23;-4.20;99.90
563;DHT22;266;49.514;8.294;2024-01-11T03:24:51;-4.20;99.90
563;DHT22;266;49.514;8.294;2024-01-11T03:27:19;-4.30;99.90
563;DHT22;266;49.514;8.294;2024-01-11T03:29:47;-4.30;99.90
563;DHT22;266;49.514;8.294;2024-01-11T03:32:16;-4.30;99.90
563;DHT22;266;49.514;8.294;2024-01-11T03:34:45;-4.30;99.90
563;DHT22;266;49.514;8.294;2024-01-11T03:37:13;-4.30;99.90
563;DHT22;266;49.514;8.294;2024-01-11T03:39:43;-4.30;99.90
563;DHT22;266;49.514;8.294;2024-01-11T03:42:11;-4.40;99.90
563;DHT22;266;49.514;8.294;2024-01-11T03:44:39;-4.40;99.90
563;DHT22;266;49.514;8.294;2024-01-11T03:47:07;-4.40;99.90
563;DHT22;266;49.514;8.294;2024-01-11T03:49:35;-4.40;99.90
563;DHT22;266;49.514;8.294;2024-01-11T03:52:05;-4.40;99.90
563;DHT22;266;49.514;8.294;2024-01-11T03:54:34;-4.40;99.90
563;DHT22;266;49.514;8.294;2024-01-11T03:57:02;-4.50;99.90
563;DHT22;266;49.514;8.294;2024-01-11T03:59:29;-4.50;99.90
563;DHT22;266;49.514;8.294;2024-01-11T04:01:58;-4.50;99.90
563;DHT22;266;49.514;8.294;2024-01-11T04:04:26;-4.50;99.90
563;DHT22;266;49.514;8.294;2024-01-11T04:06:54;-4.50;99.90
563;DHT22;266;49.514;8.294;2024-01-11T04:09:26;-4.50;99.90
563;DHT22;266;49.514;8.294;2024-01-11T04:11:54;-4.60;99.90
563;DHT22;266;49.514;8.294;2024-01-11T04:14:22;-4.60;99.90
563;DHT22;266;49.514;8.294;2024-01-11T04:16:50;-4.60;99.90
563;DHT22;266;49.514;8.294;2024-01-11T04:19:18;-4.60;99.90
563;DHT22;266;49.514;8.294;2024-01-11T04:21:49;-4.60;99.90
563;DHT22;266;49.514;8.294;2024-01-11T04:24:17;-4.60;99.90
563;DHT22;266;49.514;8.294;2024-01-11T04:26:46;-4.60;99.90
563;DHT22;266;49.514;8.294;2024-01-11T04:29:14;-4.60;99.90
563;DHT22;266;49.514;8.294;2024-01-11T04:31:42;-4.60;99.90
563;DHT22;266;49.514;8.294;2024-01-11T04:34:09;-4.60;99.90
563;DHT22;266;49.514;8.294;2024-01-11T04:36:38;-4.60;99.90
563;DHT22;266;49.514;8.294;2024-01-11T04:39:06;-4.60;99.90
563;DHT22;266;49.514;8.294;2024-01-11T04:41:35;-4.60;99.90
563;DHT22;266;49.514;8.294;2024-01-11T04:44:05;-4.60;99.90
563;DHT22;266;49.514;8.294;2024-01-11T04:46:34;-4.60;99.90
563;DHT22;266;49.514;8.294;2024-01-11T04:49:02;-4.60;99.90
563;DHT22;266;49.514;8.294;2024-01-11T04:51:30;-4.60;99.90
563;DHT22;266;49.514;8.294;2024-01-11T04:53:58;-4.70;99.90
563;DHT22;266;49.514;8.294;2024-01-11T04:56:27;-4.70;99.90
563;DHT22;266;49.514;8.294;2024-01-11T04:58:56;-4.70;99.90
563;DHT22;266;49.514;8.294;2024-01-11T05:01:26;-4.70;99.90
563;DHT22;266;49.514;8.294;2024-01-11T05:03:55;-4.60;99.90
563;DHT22;266;49.514;8.294;2024-01-11T05:06:23;-4.60;99.90
563;DHT22;266;49.514;8.294;2024-01-11T05:08:53;-4.60;99.90
563;DHT22;266;49.514;8.294;2024-01-11T05:11:22;-4.60;99.90
563;DHT22;266;49.514;8.294;2024-01-11T05:13:52;-4.60;99.90
563;DHT22;266;49.514;8.294;2024-01-11T05:16:20;-4.60;99.90
563;DHT22;266;49.514;8.294;2024-01-11T05:18:51;-4.60;99.90
563;DHT22;266;49.514;8.294;2024-01-11T05:21:19;-4.60;99.90
563;DHT22;266;49.514;8.294;2024-01-11T05:23:47;-4.60;99.90
563;DHT22;266;49.514;8.294;2024-01-11T05:26:16;-4.60;99.90
563;DHT22;266;49.514;8.294;2024-01-11T05:28:44;-4.60;99.90
563;DHT22;266;49.514;8.294;2024-01-11T05:31:14;-4.60;99.90
563;DHT22;266;49.514;8.294;2024-01-11T05:33:44;-4.60;99.90
563;DHT22;266;49.514;8.294;2024-01-11T05:36:14;-4.60;99.90
563;DHT22;266;49.514;8.294;2024-01-11T05:38:42;-4.70;99.90
563;DHT22;266;49.514;8.294;2024-01-11T05:41:10;-4.70;99.90
563;DHT22;266;49.514;8.294;2024-01-11T05:43:40;-4.70;99.90
563;DHT22;266;49.514;8.294;2024-01-11T05:46:09;-4.70;99.90
563;DHT22;266;49.514;8.294;2024-01-11T05:48:37;-4.70;99.90
563;DHT22;266;49.514;8.294;2024-01-11T05:51:05;-4.70;99.90
563;DHT22;266;49.514;8.294;2024-01-11T05:53:35;-4.70;99.90
563;DHT22;266;49.514;8.294;2024-01-11T05:56:07;-4.70;99.90
563;DHT22;266;49.514;8.294;2024-01-11T05:58:36;-4.70;99.90
563;DHT22;266;49.514;8.294;2024-01-11T06:01:05;-4.70;99.90
563;DHT22;266;49.514;8.294;2024-01-11T06:03:37;-4.70;99.90
563;DHT22;266;49.514;8.294;2024-01-11T06:06:06;-4.70;99.90
563;DHT22;266;49.514;8.294;2024-01-11T06:08:36;-4.70;99.90
563;DHT22;266;49.514;8.294;2024-01-11T06:11:05;-4.70;99.90
563;DHT22;266;49.514;8.294;2024-01-11T06:13:34;-4.70;99.90
563;DHT22;266;49.514;8.294;2024-01-11T06:16:03;-4.60;99.90
563;DHT22;266;49.514;8.294;2024-01-11T06:18:30;-4.60;99.90
563;DHT22;266;49.514;8.294;2024-01-11T06:20:59;-4.60;99.90
563;DHT22;266;49.514;8.294;2024-01-11T06:23:27;-4.60;99.90
563;DHT22;266;49.514;8.294;2024-01-11T06:25:56;-4.70;99.90
563;DHT22;266;49.514;8.294;2024-01-11T06:28:24;-4.70;99.90
563;DHT22;266;49.514;8.294;2024-01-11T06:30:52;-4.70;99.90
563;DHT22;266;49.514;8.294;2024-01-11T06:33:20;-4.70;99.90
563;DHT22;266;49.514;8.294;2024-01-11T06:35:51;-4.70;99.90
563;DHT22;266;49.514;8.294;2024-01-11T06:38:19;-4.70;99.90
563;DHT22;266;49.514;8.294;2024-01-11T06:40:48;-4.70;99.90
563;DHT22;266;49.514;8.294;2024-01-11T06:43:17;-4.70;99.90
563;DHT22;266;49.514;8.294;2024-01-11T06:45:45;-4.80;99.90
563;DHT22;266;49.514;8.294;2024-01-11T06:48:13;-4.70;99.90
563;DHT22;266;49.514;8.294;2024-01-11T06:50:42;-4.70;99.90
563;DHT22;266;49.514;8.294;2024-01-11T06:53:10;-4.70;99.90
563;DHT22;266;49.514;8.294;2024-01-11T06:55:38;-4.70;99.90
563;DHT22;266;49.514;8.294;2024-01-11T06:58:08;-4.70;99.90
563;DHT22;266;49.514;8.294;2024-01-11T07:00:37;-4.70;99.90
563;DHT22;266;49.514;8.294;2024-01-11T07:03:10;-4.70;99.90
563;DHT22;266;49.514;8.294;2024-01-11T07:05:38;-4.70;99.90
563;DHT22;266;49.514;8.294;2024-01-11T07:08:06;-4.70;99.90
563;DHT22;266;49.514;8.294;2024-01-11T07:10:34;-4.70;99.90
563;DHT22;266;49.514;8.294;2024-01-11T07:13:02;-4.70;99.90
563;DHT22;266;49.514;8.294;2024-01-11T07:15:30;-4.70;99.90
563;DHT22;266;49.514;8.294;2024-01-11T07:18:00;-4.70;99.90
563;DHT22;266;49.514;8.294;2024-01-11T07:20:28;-4.70;99.90
563;DHT22;266;49.514;8.294;2024-01-11T07:22:56;-4.70;99.90
563;DHT22;266;49.514;8.294;2024-01-11T07:25:24;-4.70;99.90
563;DHT22;266;49.514;8.294;2024-01-11T07:27:52;-4.70;99.90
563;DHT22;266;49.514;8.294;2024-01-11T07:30:20;-4.70;99.90
563;DHT22;266;49.514;8.294;2024-01-11T07:32:48;-4.70;99.90
563;DHT22;266;49.514;8.294;2024-01-11T07:35:18;-4.70;99.90
563;DHT22;266;49.514;8.294;2024-01-11T07:37:47;-4.60;99.90
563;DHT22;266;49.514;8.294;2024-01-11T07:40:16;-4.50;99.90
563;DHT22;266;49.514;8.294;2024-01-11T07:42:45;-4.30;99.90
563;DHT22;266;49.514;8.294;2024-01-11T07:45:13;-4.10;99.90
563;DHT22;266;49.514;8.294;2024-01-11T07:47:41;-4.00;99.90
563;DHT22;266;49.514;8.294;2024-01-11T07:50:10;-3.70;99.90
563;DHT22;266;49.514;8.294;2024-01-11T07:52:40;-3.50;99.90
563;DHT22;266;49.514;8.294;2024-01-11T07:55:09;-3.20;99.90
563;DHT22;266;49.514;8.294;2024-01-11T07:57:39;-2.90;99.90
563;DHT22;266;49.514;8.294;2024-01-11T08:00:08;-2.70;99.90
563;DHT22;266;49.514;8.294;2024-01-11T08:02:37;-2.60;99.90
563;DHT22;266;49.514;8.294;2024-01-11T08:05:06;-2.40;99.90
563;DHT22;266;49.514;8.294;2024-01-11T08:07:34;-2.20;99.90
563;DHT22;266;49.514;8.294;2024-01-11T08:10:05;-1.90;99.90
563;DHT22;266;49.514;8.294;2024-01-11T08:12:33;-1.70;99.90
563;DHT22;266;49.514;8.294;2024-01-11T08:15:07;-1.50;99.90
563;DHT22;266;49.514;8.294;2024-01-11T08:17:39;-1.20;99.90
563;DHT22;266;49.514;8.294;2024-01-11T08:20:11;-0.80;99.90
563;DHT22;266;49.514;8.294;2024-01-11T08:22:39;-0.50;99.90
563;DHT22;266;49.514;8.294;2024-01-11T08:25:09;-0.30;99.90
563;DHT22;266;49.514;8.294;2024-01-11T08:27:37;-0.10;99.90
563;DHT22;266;49.514;8.294;2024-01-11T08:30:06;-0.10;99.90
563;DHT22;266;49.514;8.294;2024-01-11T08:32:35;0.10;99.90
563;DHT22;266;49.514;8.294;2024-01-11T08:35:06;0.20;99.90
563;DHT22;266;49.514;8.294;2024-01-11T08:37:37;0.20;99.90
563;DHT22;266;49.514;8.294;2024-01-11T08:40:08;0.30;99.90
563;DHT22;266;49.514;8.294;2024-01-11T08:42:40;0.60;99.90
563;DHT22;266;49.514;8.294;2024-01-11T08:45:09;0.80;99.90
563;DHT22;266;49.514;8.294;2024-01-11T08:47:45;0.70;99.90
563;DHT22;266;49.514;8.294;2024-01-11T08:50:14;0.60;99.90
563;DHT22;266;49.514;8.294;2024-01-11T08:52:43;1.00;99.90
563;DHT22;266;49.514;8.294;2024-01-11T08:55:11;0.90;99.90
563;DHT22;266;49.514;8.294;2024-01-11T08:57:41;1.20;99.90
563;DHT22;266;49.514;8.294;2024-01-11T09:00:09;1.40;99.90
563;DHT22;266;49.514;8.294;2024-01-11T09:02:38;1.70;99.90
563;DHT22;266;49.514;8.294;2024-01-11T09:05:06;1.80;99.90
563;DHT22;266;49.514;8.294;2024-01-11T09:07:35;2.00;99.90
563;DHT22;266;49.514;8.294;2024-01-11T09:10:04;2.10;99.90
563;DHT22;266;49.514;8.294;2024-01-11T09:12:32;2.20;99.90
563;DHT22;266;49.514;8.294;2024-01-11T09:15:02;2.20;99.90
563;DHT22;266;49.514;8.294;2024-01-11T09:17:31;1.80;99.90
563;DHT22;266;49.514;8.294;2024-01-11T09:20:00;1.60;99.90
563;DHT22;266;49.514;8.294;2024-01-11T09:22:35;1.50;99.90
563;DHT22;266;49.514;8.294;2024-01-11T09:25:04;1.10;99.90
563;DHT22;266;49.514;8.294;2024-01-11T09:27:33;1.00;99.90
563;DHT22;266;49.514;8.294;2024-01-11T09:30:04;1.10;99.90
563;DHT22;266;49.514;8.294;2024-01-11T09:32:33;1.20;99.90
563;DHT22;266;49.514;8.294;2024-01-11T09:35:01;0.90;99.90
563;DHT22;266;49.514;8.294;2024-01-11T09:37:29;0.50;99.90
563;DHT22;266;49.514;8.294;2024-01-11T09:39:57;0.30;99.90
563;DHT22;266;49.514;8.294;2024-01-11T09:42:27;0.20;99.90
563;DHT22;266;49.514;8.294;2024-01-11T09:44:56;0.10;99.90
563;DHT22;266;49.514;8.294;2024-01-11T09:47:26;-0.30;99.90
563;DHT22;266;49.514;8.294;2024-01-11T09:49:55;-0.40;99.90
563;DHT22;266;49.514;8.294;2024-01-11T09:52:23;-0.40;99.90
563;DHT22;266;49.514;8.294;2024-01-11T09:54:53;-0.50;99.90
563;DHT22;266;49.514;8.294;2024-01-11T09:57:30;-0.50;99.90
563;DHT22;266;49.514;8.294;2024-01-11T10:00:03;-0.50;99.90
563;DHT22;266;49.514;8.294;2024-01-11T10:02:39;-0.40;99.90
563;DHT22;266;49.514;8.294;2024-01-11T10:05:09;-0.30;99.90
563;DHT22;266;49.514;8.294;2024-01-11T10:07:40;0.10;99.90
563;DHT22;266;49.514;8.294;2024-01-11T10:10:09;0.20;99.90
563;DHT22;266;49.514;8.294;2024-01-11T10:12:38;0.30;99.90
563;DHT22;266;49.514;8.294;2024-01-11T10:15:06;0.30;99.90
563;DHT22;266;49.514;8.294;2024-01-11T10:17:41;0.10;99.90
563;DHT22;266;49.514;8.294;2024-01-11T10:20:10;0.20;99.90
563;DHT22;266;49.514;8.294;2024-01-11T10:22:41;0.20;99.90
563;DHT22;266;49.514;8.294;2024-01-11T10:25:10;0.10;99.90
563;DHT22;266;49.514;8.294;2024-01-11T10:27:40;0.00;99.90
563;DHT22;266;49.514;8.294;2024-01-11T10:30:10;0.00;99.90
563;DHT22;266;49.514;8.294;2024-01-11T10:32:41;0.10;99.90
563;DHT22;266;49.514;8.294;2024-01-11T10:35:09;0.10;99.90
563;DHT22;266;49.514;8.294;2024-01-11T10:37:37;0.10;99.90
563;DHT22;266;49.514;8.294;2024-01-11T10:40:08;0.10;99.90
563;DHT22;266;49.514;8.294;2024-01-11T10:42:41;0.00;99.90
563;DHT22;266;49.514;8.294;2024-01-11T10:45:14;0.00;99.90
563;DHT22;266;49.514;8.294;2024-01-11T10:47:50;0.00;99.90
563;DHT22;266;49.514;8.294;2024-01-11T10:50:21;0.10;99.90
563;DHT22;266;49.514;8.294;2024-01-11T10:53:03;0.10;99.90
563;DHT22;266;49.514;8.294;2024-01-11T10:55:33;0.10;99.90
563;DHT22;266;49.514;8.294;2024-01-11T10:58:02;0.10;99.90
563;DHT22;266;49.514;8.294;2024-01-11T11:00:31;0.20;99.90
563;DHT22;266;49.514;8.294;2024-01-11T11:03:01;0.30;99.90
563;DHT22;266;49.514;8.294;2024-01-11T11:05:30;0.40;99.90
563;DHT22;266;49.514;8.294;2024-01-11T11:08:01;0.30;99.90
563;DHT22;266;49.514;8.294;2024-01-11T11:10:32;0.20;99.90
563;DHT22;266;49.514;8.294;2024-01-11T11:13:00;0.20;99.90
563;DHT22;266;49.514;8.294;2024-01-11T11:15:28;0.20;99.90
563;DHT22;266;49.514;8.294;2024-01-11T11:17:56;0.30;99.90
563;DHT22;266;49.514;8.294;2024-01-11T11:20:26;0.40;99.90
563;DHT22;266;49.514;8.294;2024-01-11T11:23:05;0.30;99.90
563;DHT22;266;49.514;8.294;2024-01-11T11:25:34;0.30;99.90
563;DHT22;266;49.514;8.294;2024-01-11T11:28:03;0.40;99.90
563;DHT22;266;49.514;8.294;2024-01-11T11:30:32;0.50;99.90
563;DHT22;266;49.514;8.294;2024-01-11T11:33:08;0.40;99.90
563;DHT22;266;49.514;8.294;2024-01-11T11:35:38;0.30;99.90
563;DHT22;266;49.514;8.294;2024-01-11T11:38:06;0.30;99.90
563;DHT22;266;49.514;8.294;2024-01-11T11:40:36;0.30;99.90
563;DHT22;266;49.514;8.294;2024-01-11T11:43:06;0.30;99.90
563;DHT22;266;49.514;8.294;2024-01-11T11:45:35;0.20;99.90
563;DHT22;266;49.514;8.294;2024-01-11T11:51:15;0.00;99.90
563;DHT22;266;49.514;8.294;2024-01-11T11:53:47;-0.10;99.90
563;DHT22;266;49.514;8.294;2024-01-11T11:56:17;-0.20;99.90
563;DHT22;266;49.514;8.294;2024-01-11T11:58:47;-0.30;99.90
563;DHT22;266;49.514;8.294;2024-01-11T12:01:16;-0.30;99.90
563;DHT22;266;49.514;8.294;2024-01-11T12:03:46;-0.30;99.90
563;DHT22;266;49.514;8.294;2024-01-11T12:06:19;-0.40;99.90
563;DHT22;266;49.514;8.294;2024-01-11T12:08:53;-0.40;99.90
563;DHT22;266;49.514;8.294;2024-01-11T12:11:24;-0.40;99.90
563;DHT22;266;49.514;8.294;2024-01-11T12:13:54;-0.40;99.90
563;DHT22;266;49.514;8.294;2024-01-11T12:16:23;-0.30;99.90
563;DHT22;266;49.514;8.294;2024-01-11T12:18:52;-0.30;99.90
563;DHT22;266;49.514;8.294;2024-01-11T12:21:22;-0.30;99.90
563;DHT22;266;49.514;8.294;2024-01-11T12:23:50;-0.30;99.90
563;DHT22;266;49.514;8.294;2024-01-11T12:26:18;-0.20;99.90
563;DHT22;266;49.514;8.294;2024-01-11T12:28:50;-0.10;99.90
563;DHT22;266;49.514;8.294;2024-01-11T12:31:19;-0.10;99.90
563;DHT22;266;49.514;8.294;2024-01-11T12:33:49;0.00;99.90
563;DHT22;266;49.514;8.294;2024-01-11T12:36:18;0.00;99.90
563;DHT22;266;49.514;8.294;2024-01-11T12:38:50;0.10;99.90
563;DHT22;266;49.514;8.294;2024-01-11T12:41:21;0.10;99.90
563;DHT22;266;49.514;8.294;2024-01-11T12:43:50;0.10;99.90
563;DHT22;266;49.514;8.294;2024-01-11T12:46:19;0.20;99.90
563;DHT22;266;49.514;8.294;2024-01-11T12:48:47;0.20;99.90
563;DHT22;266;49.514;8.294;2024-01-11T12:51:16;0.30;99.90
563;DHT22;266;49.514;8.294;2024-01-11T12:53:50;0.30;99.90
563;DHT22;266;49.514;8.294;2024-01-11T12:56:20;0.30;99.90
563;DHT22;266;49.514;8.294;2024-01-11T12:58:50;0.40;99.90
563;DHT22;266;49.514;8.294;2024-01-11T13:01:18;0.40;99.90
563;DHT22;266;49.514;8.294;2024-01-11T13:03:46;0.50;99.90
563;DHT22;266;49.514;8.294;2024-01-11T13:06:15;0.50;99.90
563;DHT22;266;49.514;8.294;2024-01-11T13:08:44;0.60;99.90
563;DHT22;266;49.514;8.294;2024-01-11T13:11:13;0.60;99.90
563;DHT22;266;49.514;8.294;2024-01-11T13:13:44;0.70;99.90
563;DHT22;266;49.514;8.294;2024-01-11T13:16:13;0.70;99.90
563;DHT22;266;49.514;8.294;2024-01-11T13:18:42;0.70;99.90
563;DHT22;266;49.514;8.294;2024-01-11T13:21:11;0.70;99.90
563;DHT22;266;49.514;8.294;2024-01-11T13:23:40;0.70;99.90
563;DHT22;266;49.514;8.294;2024-01-11T13:26:08;0.70;99.90
563;DHT22;266;49.514;8.294;2024-01-11T13:28:37;0.70;99.90
563;DHT22;266;49.514;8.294;2024-01-11T13:31:05;0.70;99.90
563;DHT22;266;49.514;8.294;2024-01-11T13:33:37;0.70;99.90
563;DHT22;266;49.514;8.294;2024-01-11T13:36:06;0.80;99.90
563;DHT22;266;49.514;8.294;2024-01-11T13:38:35;0.80;99.90
563;DHT22;266;49.514;8.294;2024-01-11T13:41:04;0.80;99.90
563;DHT22;266;49.514;8.294;2024-01-11T13:43:35;0.90;99.90
563;DHT22;266;49.514;8.294;2024-01-11T13:46:04;1.00;99.90
563;DHT22;266;49.514;8.294;2024-01-11T13:48:32;1.10;99.90
563;DHT22;266;49.514;8.294;2024-01-11T13:51:01;1.50;99.90
563;DHT22;266;49.514;8.294;2024-01-11T13:53:30;2.10;99.90
563;DHT22;266;49.514;8.294;2024-01-11T13:55:58;2.40;99.90
563;DHT22;266;49.514;8.294;2024-01-11T13:58:26;2.90;99.90
563;DHT22;266;49.514;8.294;2024-01-11T14:00:54;3.30;99.90
563;DHT22;266;49.514;8.294;2024-01-11T14:03:25;3.70;99.90
563;DHT22;266;49.514;8.294;2024-01-11T14:05:53;4.50;99.90
563;DHT22;266;49.514;8.294;2024-01-11T14:08:22;5.10;99.90
563;DHT22;266;49.514;8.294;2024-01-11T14:10:50;5.60;99.90
563;DHT22;266;49.514;8.294;2024-01-11T14:13:18;6.40;99.90
563;DHT22;266;49.514;8.294;2024-01-11T14:15:45;6.60;99.90
563;DHT22;266;49.514;8.294;2024-01-11T14:18:15;7.30;99.90
563;DHT22;266;49.514;8.294;2024-01-11T14:20:44;7.40;99.90
563;DHT22;266;49.514;8.294;2024-01-11T14:23:13;7.80;99.90
563;DHT22;266;49.514;8.294;2024-01-11T14:25:41;8.70;99.90
563;DHT22;266;49.514;8.294;2024-01-11T14:28:09;8.90;99.90
563;DHT22;266;49.514;8.294;2024-01-11T14:30:37;9.60;99.90
563;DHT22;266;49.514;8.294;2024-01-11T14:33:05;9.60;99.90
563;DHT22;266;49.514;8.294;2024-01-11T14:35:33;9.00;99.90
563;DHT22;266;49.514;8.294;2024-01-11T14:38:02;8.10;99.90
563;DHT22;266;49.514;8.294;2024-01-11T14:40:31;7.30;99.90
563;DHT22;266;49.514;8.294;2024-01-11T14:42:59;5.80;99.90
563;DHT22;266;49.514;8.294;2024-01-11T14:45:27;4.50;99.90
563;DHT22;266;49.514;8.294;2024-01-11T14:47:54;3.50;99.90
563;DHT22;266;49.514;8.294;2024-01-11T14:50:23;2.80;99.90
563;DHT22;266;49.514;8.294;2024-01-11T14:52:51;2.40;99.90
563;DHT22;266;49.514;8.294;2024-01-11T14:55:20;2.00;99.90
563;DHT22;266;49.514;8.294;2024-01-11T14:57:48;1.80;99.90
563;DHT22;266;49.514;8.294;2024-01-11T15:00:21;1.60;99.90
563;DHT22;266;49.514;8.294;2024-01-11T15:02:50;1.50;99.90
563;DHT22;266;49.514;8.294;2024-01-11T15:05:19;1.40;99.90
563;DHT22;266;49.514;8.294;2024-01-11T15:07:47;1.30;99.90
563;DHT22;266;49.514;8.294;2024-01-11T15:10:14;1.20;99.90
563;DHT22;266;49.514;8.294;2024-01-11T15:12:44;1.10;99.90
563;DHT22;266;49.514;8.294;2024-01-11T15:15:13;1.00;99.90
563;DHT22;266;49.514;8.294;2024-01-11T15:17:41;1.00;99.90
563;DHT22;266;49.514;8.294;2024-01-11T15:20:10;0.90;99.90
563;DHT22;266;49.514;8.294;2024-01-11T15:22:38;0.80;99.90
563;DHT22;266;49.514;8.294;2024-01-11T15:25:07;0.80;99.90
563;DHT22;266;49.514;8.294;2024-01-11T15:27:35;0.70;99.90
563;DHT22;266;49.514;8.294;2024-01-11T15:30:05;0.70;99.90
563;DHT22;266;49.514;8.294;2024-01-11T15:32:33;0.60;99.90
563;DHT22;266;49.514;8.294;2024-01-11T15:35:03;0.60;99.90
563;DHT22;266;49.514;8.294;2024-01-11T15:37:34;0.50;99.90
563;DHT22;266;49.514;8.294;2024-01-11T15:40:03;0.50;99.90
563;DHT22;266;49.514;8.294;2024-01-11T15:42:31;0.40;99.90
563;DHT22;266;49.514;8.294;2024-01-11T15:45:01;0.30;99.90
563;DHT22;266;49.514;8.294;2024-01-11T15:47:31;0.30;99.90
563;DHT22;266;49.514;8.294;2024-01-11T15:49:59;0.20;99.90
563;DHT22;266;49.514;8.294;2024-01-11T15:52:27;0.20;99.90
563;DHT22;266;49.514;8.294;2024-01-11T15:54:55;0.10;99.90
563;DHT22;266;49.514;8.294;2024-01-11T15:57:26;0.10;99.90
563;DHT22;266;49.514;8.294;2024-01-11T15:59:54;0.00;99.90
563;DHT22;266;49.514;8.294;2024-01-11T16:02:22;0.00;99.90
563;DHT22;266;49.514;8.294;2024-01-11T16:04:51;0.00;99.90
563;DHT22;266;49.514;8.294;2024-01-11T16:07:19;0.00;99.90
563;DHT22;266;49.514;8.294;2024-01-11T16:09:47;-0.10;99.90
563;DHT22;266;49.514;8.294;2024-01-11T16:12:16;-0.10;99.90
563;DHT22;266;49.514;8.294;2024-01-11T16:14:44;-0.20;99.90
563;DHT22;266;49.514;8.294;2024-01-11T16:17:12;-0.20;99.90
563;DHT22;266;49.514;8.294;2024-01-11T16:19:41;-0.20;99.90
563;DHT22;266;49.514;8.294;2024-01-11T16:22:10;-0.30;99.90
563;DHT22;266;49.514;8.294;2024-01-11T16:24:38;-0.30;99.90
563;DHT22;266;49.514;8.294;2024-01-11T16:27:06;-0.30;99.90
563;DHT22;266;49.514;8.294;2024-01-11T16:29:35;-0.30;99.90
563;DHT22;266;49.514;8.294;2024-01-11T16:32:04;-0.30;99.90
563;DHT22;266;49.514;8.294;2024-01-11T16:34:32;-0.40;99.90
563;DHT22;266;49.514;8.294;2024-01-11T16:37:00;-0.40;99.90
563;DHT22;266;49.514;8.294;2024-01-11T16:39:30;-0.40;99.90
563;DHT22;266;49.514;8.294;2024-01-11T16:41:57;-0.50;99.90
563;DHT22;266;49.514;8.294;2024-01-11T16:44:26;-0.50;99.90
563;DHT22;266;49.514;8.294;2024-01-11T16:46:54;-0.50;99.90
563;DHT22;266;49.514;8.294;2024-01-11T16:49:22;-0.50;99.90
563;DHT22;266;49.514;8.294;2024-01-11T16:51:50;-0.50;99.90
563;DHT22;266;49.514;8.294;2024-01-11T16:54:19;-0.60;99.90
563;DHT22;266;49.514;8.294;2024-01-11T16:56:49;-0.60;99.90